createdAt,value
2019-03-30T00:01:40.670Z,8.40
2019-03-30T00:04:13.396Z,8.40
2019-03-30T00:06:44.921Z,8.40
2019-03-30T00:09:18.238Z,8.40
2019-03-30T00:11:49.815Z,8.40
2019-03-30T00:14:21.292Z,8.40
2019-03-30T00:16:52.595Z,8.40
2019-03-30T00:19:34.687Z,8.30
2019-03-30T00:21:57.330Z,8.40
2019-03-30T00:24:28.341Z,8.40
2019-03-30T00:26:59.611Z,8.30
2019-03-30T00:29:31.073Z,8.30
2019-03-30T00:32:02.595Z,8.30
2019-03-30T00:34:33.934Z,8.30
2019-03-30T00:37:05.083Z,8.40
2019-03-30T00:39:36.524Z,8.40
2019-03-30T00:42:07.938Z,8.40
2019-03-30T00:44:38.899Z,8.40
2019-03-30T00:47:09.946Z,8.40
2019-03-30T00:49:49.084Z,8.40
2019-03-30T00:52:13.864Z,8.50
2019-03-30T00:54:44.949Z,8.50
2019-03-30T00:57:15.903Z,8.50
2019-03-30T00:59:47.622Z,8.50
2019-03-30T01:02:18.630Z,8.60
2019-03-30T01:04:49.803Z,8.60
2019-03-30T01:07:20.750Z,8.60
2019-03-30T01:09:53.030Z,8.70
2019-03-30T01:12:24.094Z,8.70
2019-03-30T01:14:55.268Z,8.70
2019-03-30T01:17:26.521Z,8.70
2019-03-30T01:20:03.058Z,8.80
2019-03-30T01:22:30.271Z,8.80
2019-03-30T01:25:01.214Z,8.80
2019-03-30T01:27:32.290Z,8.80
2019-03-30T01:30:03.871Z,8.80
2019-03-30T01:32:35.111Z,8.80
2019-03-30T01:35:07.868Z,8.90
2019-03-30T01:37:39.619Z,8.90
2019-03-30T01:40:10.960Z,8.90
2019-03-30T01:42:42.587Z,8.90
2019-03-30T01:45:14.465Z,8.90
2019-03-30T01:47:45.561Z,9.00
2019-03-30T01:50:18.050Z,9.00
2019-03-30T01:52:49.386Z,9.00
2019-03-30T01:55:20.383Z,9.00
2019-03-30T01:57:51.811Z,9.00
2019-03-30T02:00:23.463Z,9.00
2019-03-30T02:02:54.493Z,9.00
2019-03-30T02:05:25.841Z,9.00
2019-03-30T02:07:56.961Z,9.00
2019-03-30T02:10:45.096Z,9.00
2019-03-30T02:13:16.774Z,9.00
2019-03-30T02:15:48.797Z,9.00
2019-03-30T02:18:19.829Z,9.00
2019-03-30T02:20:51.338Z,9.00
2019-03-30T02:23:23.186Z,9.00
2019-03-30T02:25:54.163Z,9.00
2019-03-30T02:28:26.983Z,9.00
2019-03-30T02:30:58.174Z,9.00
2019-03-30T02:33:29.268Z,9.00
2019-03-30T02:36:00.317Z,9.00
2019-03-30T02:38:31.316Z,9.00
2019-03-30T02:41:02.643Z,9.00
2019-03-30T02:43:33.945Z,9.00
2019-03-30T02:46:05.200Z,9.00
2019-03-30T02:48:36.227Z,9.00
2019-03-30T02:51:07.391Z,9.10
2019-03-30T02:53:38.937Z,9.10
2019-03-30T02:56:09.955Z,9.10
2019-03-30T02:58:40.981Z,9.10
2019-03-30T03:01:13.160Z,9.10
2019-03-30T03:03:44.196Z,9.10
2019-03-30T03:06:15.275Z,9.10
2019-03-30T03:08:46.306Z,9.10
2019-03-30T03:11:17.639Z,9.10
2019-03-30T03:13:48.775Z,9.10
2019-03-30T03:16:20.192Z,9.10
2019-03-30T03:18:51.223Z,9.10
2019-03-30T03:21:22.739Z,9.10
2019-03-30T03:23:53.652Z,9.10
2019-03-30T03:26:24.642Z,9.00
2019-03-30T03:28:55.718Z,9.10
2019-03-30T03:31:26.793Z,9.10
2019-03-30T03:33:57.857Z,9.00
2019-03-30T03:36:29.017Z,9.00
2019-03-30T03:39:00.540Z,9.00
2019-03-30T03:41:32.275Z,9.00
2019-03-30T03:44:03.419Z,9.00
2019-03-30T03:46:34.463Z,9.00
2019-03-30T03:49:05.405Z,9.00
2019-03-30T03:51:37.047Z,9.00
2019-03-30T03:54:08.028Z,9.00
2019-03-30T03:56:43.260Z,9.00
2019-03-30T03:59:15.675Z,9.10
2019-03-30T04:01:48.641Z,9.00
2019-03-30T04:04:22.034Z,9.00
2019-03-30T04:06:54.839Z,9.00
2019-03-30T04:09:28.853Z,9.00
2019-03-30T04:12:00.621Z,9.00
2019-03-30T04:14:33.545Z,9.00
2019-03-30T04:17:05.331Z,9.00
2019-03-30T04:19:36.277Z,9.00
2019-03-30T04:22:07.498Z,9.00
2019-03-30T04:24:38.649Z,9.00
2019-03-30T04:27:09.627Z,9.00
2019-03-30T04:29:40.853Z,9.00
2019-03-30T04:32:12.031Z,9.00
2019-03-30T04:34:43.145Z,9.10
2019-03-30T04:37:14.386Z,9.10
2019-03-30T04:39:46.449Z,9.00
2019-03-30T04:42:17.643Z,9.10
2019-03-30T04:44:48.654Z,9.10
2019-03-30T04:47:19.654Z,9.10
2019-03-30T04:49:50.697Z,9.10
2019-03-30T04:52:21.951Z,9.10
2019-03-30T04:54:52.879Z,9.10
2019-03-30T04:57:23.960Z,9.10
2019-03-30T04:59:54.959Z,9.10
2019-03-30T05:02:26.365Z,9.10
2019-03-30T05:04:57.759Z,9.10
2019-03-30T05:07:29.251Z,9.20
2019-03-30T05:10:00.667Z,9.20
2019-03-30T05:12:31.879Z,9.20
2019-03-30T05:15:03.051Z,9.20
2019-03-30T05:17:46.879Z,9.30
2019-03-30T05:20:07.699Z,9.30
2019-03-30T05:22:38.773Z,9.30
2019-03-30T05:25:09.946Z,9.30
2019-03-30T05:27:41.468Z,9.30
2019-03-30T05:30:13.088Z,9.40
2019-03-30T05:32:44.235Z,9.40
2019-03-30T05:35:15.369Z,9.40
2019-03-30T05:37:46.370Z,9.40
2019-03-30T05:40:20.261Z,9.50
2019-03-30T05:42:56.388Z,9.50
2019-03-30T05:45:27.299Z,9.50
2019-03-30T05:47:58.495Z,9.50
2019-03-30T05:50:29.595Z,9.60
2019-03-30T05:53:00.779Z,9.60
2019-03-30T05:55:31.956Z,9.60
2019-03-30T05:58:03.121Z,9.70
2019-03-30T06:00:34.047Z,9.60
2019-03-30T06:03:05.023Z,9.60
2019-03-30T06:05:35.993Z,9.70
2019-03-30T06:08:06.977Z,9.70
2019-03-30T06:10:38.987Z,9.80
2019-03-30T06:13:10.149Z,9.80
2019-03-30T06:15:41.231Z,9.80
2019-03-30T06:18:12.157Z,9.80
2019-03-30T06:20:43.129Z,9.90
2019-03-30T06:23:14.277Z,9.90
2019-03-30T06:25:45.328Z,10.00
2019-03-30T06:28:16.477Z,10.00
2019-03-30T06:30:47.497Z,10.10
2019-03-30T06:33:18.501Z,10.10
2019-03-30T06:35:49.665Z,10.10
2019-03-30T06:38:20.807Z,10.20
2019-03-30T06:40:51.849Z,10.20
2019-03-30T06:43:23.639Z,10.30
2019-03-30T06:45:54.915Z,10.40
2019-03-30T06:48:26.119Z,10.40
2019-03-30T06:50:57.360Z,10.50
2019-03-30T06:53:28.915Z,10.60
2019-03-30T06:56:01.032Z,10.60
2019-03-30T06:58:32.491Z,10.70
2019-03-30T07:01:03.670Z,10.70
2019-03-30T07:03:34.679Z,10.80
2019-03-30T07:06:06.332Z,10.80
2019-03-30T07:08:38.333Z,10.80
2019-03-30T07:11:21.066Z,10.80
2019-03-30T07:13:44.445Z,10.90
2019-03-30T07:16:15.528Z,10.90
2019-03-30T07:18:47.095Z,11.00
2019-03-30T07:21:18.122Z,11.00
2019-03-30T07:23:49.124Z,11.00
2019-03-30T07:26:20.462Z,11.10
2019-03-30T07:28:51.462Z,11.20
2019-03-30T07:31:22.673Z,11.20
2019-03-30T07:33:53.686Z,11.20
2019-03-30T07:36:26.483Z,11.20
2019-03-30T07:38:57.641Z,11.20
2019-03-30T07:41:29.226Z,11.20
2019-03-30T07:44:00.328Z,11.20
2019-03-30T07:46:31.786Z,11.20
2019-03-30T07:49:03.064Z,11.30
2019-03-30T07:51:34.407Z,11.30
2019-03-30T07:54:05.485Z,11.30
2019-03-30T07:56:38.201Z,11.30
2019-03-30T07:59:12.080Z,11.30
2019-03-30T08:01:44.442Z,11.30
2019-03-30T08:04:15.889Z,11.40
2019-03-30T08:06:46.944Z,11.50
2019-03-30T08:09:18.052Z,11.60
2019-03-30T08:11:49.375Z,11.60
2019-03-30T08:14:20.579Z,11.60
2019-03-30T08:16:51.919Z,11.60
2019-03-30T08:19:23.371Z,11.70
2019-03-30T08:21:54.405Z,11.80
2019-03-30T08:24:27.542Z,11.80
2019-03-30T08:27:03.718Z,11.90
2019-03-30T08:29:41.153Z,11.90
2019-03-30T08:32:12.720Z,12.00
2019-03-30T08:34:43.837Z,11.90
2019-03-30T08:37:14.922Z,12.00
2019-03-30T08:39:46.749Z,12.10
2019-03-30T08:42:17.956Z,12.10
2019-03-30T08:44:49.227Z,12.20
2019-03-30T08:47:20.421Z,12.10
2019-03-30T08:49:51.595Z,12.20
2019-03-30T08:52:24.248Z,12.30
2019-03-30T08:54:55.593Z,12.30
2019-03-30T08:57:26.849Z,12.30
2019-03-30T08:59:58.271Z,12.30
2019-03-30T09:02:29.521Z,12.40
2019-03-30T09:05:00.623Z,12.40
2019-03-30T09:10:20.383Z,12.50
2019-03-30T09:12:51.607Z,12.60
2019-03-30T09:15:22.853Z,12.70
2019-03-30T09:17:54.107Z,12.80
2019-03-30T09:20:25.185Z,13.00
2019-03-30T09:22:56.435Z,13.00
2019-03-30T09:25:28.149Z,12.90
2019-03-30T09:27:59.623Z,13.00
2019-03-30T09:30:31.229Z,13.10
2019-03-30T09:33:02.667Z,13.20
2019-03-30T09:35:33.978Z,13.30
2019-03-30T09:38:05.059Z,13.50
2019-03-30T09:40:36.580Z,13.80
2019-03-30T09:43:08.197Z,13.90
2019-03-30T09:45:39.955Z,14.00
2019-03-30T09:48:11.474Z,14.10
2019-03-30T09:50:42.700Z,14.20
2019-03-30T09:53:13.746Z,14.10
2019-03-30T09:55:44.998Z,14.20
2019-03-30T09:58:16.543Z,14.30
2019-03-30T10:00:47.946Z,14.30
2019-03-30T10:03:19.138Z,14.50
2019-03-30T10:05:50.572Z,14.50
2019-03-30T10:08:22.133Z,14.60
2019-03-30T10:10:53.584Z,14.60
2019-03-30T10:13:24.751Z,14.80
2019-03-30T10:15:56.144Z,14.90
2019-03-30T10:18:27.153Z,14.80
2019-03-30T10:20:58.249Z,14.80
2019-03-30T10:23:29.655Z,14.80
2019-03-30T10:26:00.705Z,14.80
2019-03-30T10:28:31.828Z,14.80
2019-03-30T10:31:02.879Z,14.80
2019-03-30T10:33:34.097Z,15.00
2019-03-30T10:36:05.325Z,14.90
2019-03-30T10:38:36.697Z,14.90
2019-03-30T10:41:08.525Z,15.30
2019-03-30T10:43:39.773Z,16.00
2019-03-30T10:46:11.089Z,16.40
2019-03-30T10:48:42.285Z,16.70
2019-03-30T10:51:13.411Z,17.00
2019-03-30T10:53:44.651Z,17.20
2019-03-30T10:56:16.002Z,17.00
2019-03-30T10:58:47.336Z,16.90
2019-03-30T11:01:18.801Z,16.70
2019-03-30T11:03:50.124Z,16.80
2019-03-30T11:06:21.268Z,16.70
2019-03-30T11:08:52.324Z,16.40
2019-03-30T11:11:23.550Z,16.10
2019-03-30T11:13:54.968Z,16.40
2019-03-30T11:16:26.600Z,17.30
2019-03-30T11:18:59.143Z,17.80
2019-03-30T11:21:30.214Z,17.40
2019-03-30T11:24:01.707Z,17.60
2019-03-30T11:26:32.805Z,17.60
2019-03-30T11:29:04.147Z,17.60
2019-03-30T11:31:35.425Z,17.30
2019-03-30T11:34:07.160Z,17.20
2019-03-30T11:36:38.169Z,17.40
2019-03-30T11:39:09.670Z,17.50
2019-03-30T11:41:40.944Z,17.50
2019-03-30T11:44:12.204Z,18.10
2019-03-30T11:46:44.906Z,18.80
2019-03-30T11:49:15.962Z,19.20
2019-03-30T11:51:48.745Z,19.40
2019-03-30T11:54:19.970Z,19.20
2019-03-30T11:56:51.622Z,18.90
2019-03-30T11:59:22.859Z,18.90
2019-03-30T12:01:54.177Z,18.90
2019-03-30T12:04:25.254Z,19.30
2019-03-30T12:06:56.384Z,19.90
2019-03-30T12:09:27.640Z,19.80
2019-03-30T12:11:59.069Z,20.20
2019-03-30T12:14:30.564Z,20.30
2019-03-30T12:17:01.765Z,20.30
2019-03-30T12:19:33.016Z,20.20
2019-03-30T12:22:04.146Z,20.00
2019-03-30T12:24:36.945Z,19.90
2019-03-30T12:27:07.908Z,19.90
2019-03-30T12:29:39.972Z,20.00
2019-03-30T12:32:11.284Z,20.00
2019-03-30T12:34:42.490Z,20.00
2019-03-30T12:37:13.404Z,19.90
2019-03-30T12:39:44.376Z,19.90
2019-03-30T12:42:15.472Z,20.00
2019-03-30T12:44:46.594Z,19.90
2019-03-30T12:47:17.590Z,19.80
2019-03-30T12:49:49.937Z,19.30
2019-03-30T12:52:21.038Z,18.80
2019-03-30T12:54:52.072Z,18.10
2019-03-30T12:57:23.158Z,17.40
2019-03-30T12:59:54.235Z,16.90
2019-03-30T13:02:28.347Z,16.50
2019-03-30T13:04:59.290Z,16.30
2019-03-30T13:07:30.334Z,16.20
2019-03-30T13:10:01.375Z,15.90
2019-03-30T13:12:32.470Z,15.90
2019-03-30T13:15:04.782Z,15.80
2019-03-30T13:17:35.917Z,15.80
2019-03-30T13:20:07.424Z,15.90
2019-03-30T13:22:38.352Z,15.80
2019-03-30T13:25:10.024Z,15.90
2019-03-30T13:27:40.988Z,15.80
2019-03-30T13:30:13.356Z,15.80
2019-03-30T13:32:44.590Z,15.70
2019-03-30T13:35:15.654Z,15.70
2019-03-30T13:37:46.636Z,15.70
2019-03-30T13:40:17.735Z,15.60
2019-03-30T13:42:49.016Z,15.60
2019-03-30T13:45:20.290Z,15.50
2019-03-30T13:47:52.930Z,15.50
2019-03-30T13:50:24.419Z,15.40
2019-03-30T13:52:57.296Z,15.40
2019-03-30T13:55:28.338Z,15.50
2019-03-30T13:57:59.440Z,15.50
2019-03-30T14:00:32.787Z,15.50
2019-03-30T14:03:04.096Z,15.40
2019-03-30T14:05:35.244Z,15.50
2019-03-30T14:08:06.352Z,15.50
2019-03-30T14:10:39.177Z,15.40
2019-03-30T14:13:10.374Z,15.30
2019-03-30T14:15:41.803Z,15.30
2019-03-30T14:18:12.880Z,15.30
2019-03-30T14:20:43.997Z,15.30
2019-03-30T14:23:15.149Z,15.30
2019-03-30T14:25:46.339Z,15.30
2019-03-30T14:28:17.624Z,15.30
2019-03-30T14:30:48.578Z,15.30
2019-03-30T14:33:19.601Z,15.40
2019-03-30T14:35:50.825Z,15.30
2019-03-30T14:38:21.905Z,15.20
2019-03-30T14:40:52.941Z,15.20
2019-03-30T14:43:23.939Z,15.30
2019-03-30T14:45:56.314Z,15.20
2019-03-30T14:48:27.294Z,15.20
2019-03-30T14:50:59.606Z,15.20
2019-03-30T14:53:31.021Z,15.20
2019-03-30T14:56:02.362Z,15.10
2019-03-30T14:58:33.601Z,15.00
2019-03-30T15:01:05.354Z,15.00
2019-03-30T15:03:36.306Z,15.00
2019-03-30T15:06:08.954Z,14.90
2019-03-30T15:08:40.039Z,14.80
2019-03-30T15:11:11.318Z,14.80
2019-03-30T15:13:42.266Z,14.70
2019-03-30T15:16:13.468Z,14.80
2019-03-30T15:18:44.556Z,14.70
2019-03-30T15:21:16.018Z,14.80
2019-03-30T15:23:47.122Z,14.80
2019-03-30T15:26:18.147Z,14.80
2019-03-30T15:28:49.361Z,14.80
2019-03-30T15:31:20.499Z,14.80
2019-03-30T15:33:53.342Z,14.80
2019-03-30T15:36:24.366Z,14.80
2019-03-30T15:38:55.651Z,14.80
2019-03-30T15:41:26.619Z,14.90
2019-03-30T15:43:57.667Z,14.80
2019-03-30T15:46:28.911Z,14.80
2019-03-30T15:48:59.918Z,14.80
2019-03-30T15:51:31.037Z,14.80
2019-03-30T15:54:02.553Z,14.70
2019-03-30T15:56:33.548Z,14.70
2019-03-30T15:59:05.954Z,14.70
2019-03-30T16:01:37.372Z,14.70
2019-03-30T16:04:08.417Z,14.60
2019-03-30T16:06:39.540Z,14.60
2019-03-30T16:09:11.414Z,14.50
2019-03-30T16:11:42.398Z,14.40
2019-03-30T16:14:14.555Z,14.40
2019-03-30T16:16:45.625Z,14.30
2019-03-30T16:19:16.626Z,14.20
2019-03-30T16:21:49.705Z,14.20
2019-03-30T16:24:20.487Z,14.20
2019-03-30T16:26:51.700Z,14.10
2019-03-30T16:29:22.807Z,14.00
2019-03-30T16:31:54.067Z,14.00
2019-03-30T16:34:25.362Z,14.00
2019-03-30T16:36:56.554Z,13.90
2019-03-30T16:39:27.848Z,13.90
2019-03-30T16:41:59.919Z,13.90
2019-03-30T16:44:30.921Z,13.80
2019-03-30T16:47:02.108Z,13.70
2019-03-30T16:49:33.409Z,13.70
2019-03-30T16:52:05.453Z,13.60
2019-03-30T16:54:37.122Z,13.50
2019-03-30T16:57:08.718Z,13.50
2019-03-30T16:59:40.056Z,13.40
2019-03-30T17:02:11.264Z,13.30
2019-03-30T17:04:42.750Z,13.30
2019-03-30T17:07:14.244Z,13.20
2019-03-30T17:09:46.748Z,13.20
2019-03-30T17:12:18.065Z,13.10
2019-03-30T17:14:49.379Z,13.00
2019-03-30T17:17:20.517Z,13.20
2019-03-30T17:19:51.496Z,13.20
2019-03-30T17:22:22.544Z,13.20
2019-03-30T17:24:53.721Z,13.20
2019-03-30T17:27:26.007Z,13.10
2019-03-30T17:29:57.150Z,13.10
2019-03-30T17:32:28.317Z,13.00
2019-03-30T17:34:59.993Z,12.90
2019-03-30T17:37:31.319Z,12.90
2019-03-30T17:40:02.647Z,12.90
2019-03-30T17:42:33.633Z,12.80
2019-03-30T17:45:05.151Z,12.80
2019-03-30T17:47:36.300Z,12.70
2019-03-30T17:50:08.250Z,12.70
2019-03-30T17:52:39.905Z,12.70
2019-03-30T17:55:11.607Z,12.60
2019-03-30T17:57:43.110Z,12.60
2019-03-30T18:00:16.854Z,12.60
2019-03-30T18:02:49.258Z,12.60
2019-03-30T18:05:20.491Z,12.50
2019-03-30T18:07:51.616Z,12.50
2019-03-30T18:10:22.802Z,12.50
2019-03-30T18:12:54.252Z,12.50
2019-03-30T18:15:27.431Z,12.50
2019-03-30T18:17:58.992Z,12.40
2019-03-30T18:20:30.450Z,12.40
2019-03-30T18:23:02.058Z,12.40
2019-03-30T18:25:33.932Z,12.30
2019-03-30T18:28:07.117Z,12.30
2019-03-30T18:30:40.447Z,12.30
2019-03-30T18:33:11.964Z,12.20
2019-03-30T18:35:44.527Z,12.20
2019-03-30T18:38:15.598Z,12.10
2019-03-30T18:40:48.392Z,12.10
2019-03-30T18:43:21.166Z,12.10
2019-03-30T18:45:52.734Z,12.10
2019-03-30T18:48:24.210Z,12.10
2019-03-30T18:50:55.843Z,12.00
2019-03-30T18:53:26.892Z,12.00
2019-03-30T18:55:58.292Z,11.90
2019-03-30T18:58:40.966Z,11.90
2019-03-30T19:01:02.356Z,11.90
2019-03-30T19:03:33.439Z,11.90
2019-03-30T19:06:05.866Z,11.90
2019-03-30T19:08:36.901Z,11.80
2019-03-30T19:11:08.105Z,11.80
2019-03-30T19:13:39.750Z,11.80
2019-03-30T19:16:11.011Z,11.70
2019-03-30T19:18:42.471Z,11.70
2019-03-30T19:21:13.849Z,11.70
2019-03-30T19:23:46.211Z,11.70
2019-03-30T19:26:17.191Z,11.60
2019-03-30T19:28:56.299Z,11.60
2019-03-30T19:31:21.370Z,11.60
2019-03-30T19:33:52.485Z,11.60
2019-03-30T19:36:25.613Z,11.60
2019-03-30T19:38:56.681Z,11.60
2019-03-30T19:41:27.839Z,11.60
2019-03-30T19:43:59.108Z,11.50
2019-03-30T19:46:30.439Z,11.50
2019-03-30T19:49:01.662Z,11.50
2019-03-30T19:51:33.098Z,11.40
2019-03-30T19:54:04.484Z,11.40
2019-03-30T19:56:35.899Z,11.40
2019-03-30T19:59:10.842Z,11.40
2019-03-30T20:01:39.969Z,11.40
2019-03-30T20:04:11.242Z,11.40
2019-03-30T20:06:42.339Z,11.40
2019-03-30T20:09:13.835Z,11.30
2019-03-30T20:11:45.695Z,11.30
2019-03-30T20:14:17.122Z,11.30
2019-03-30T20:16:48.175Z,11.30
2019-03-30T20:19:19.441Z,11.30
2019-03-30T20:21:50.975Z,11.30
2019-03-30T20:24:22.067Z,11.20
2019-03-30T20:26:53.331Z,11.20
2019-03-30T20:29:25.937Z,11.20
2019-03-30T20:31:57.822Z,11.30
2019-03-30T20:34:29.027Z,11.20
2019-03-30T20:37:00.748Z,11.20
2019-03-30T20:39:32.231Z,11.20
2019-03-30T20:42:03.687Z,11.10
2019-03-30T20:44:35.127Z,11.10
2019-03-30T20:47:06.280Z,11.10
2019-03-30T20:49:37.352Z,11.10
2019-03-30T20:52:08.395Z,11.00
2019-03-30T20:54:40.629Z,11.00
2019-03-30T20:57:12.771Z,10.90
2019-03-30T20:59:43.767Z,10.90
2019-03-30T21:02:14.953Z,10.90
2019-03-30T21:04:46.068Z,10.80
2019-03-30T21:07:17.148Z,10.80
2019-03-30T21:09:48.491Z,10.80
2019-03-30T21:12:19.730Z,10.80
2019-03-30T21:14:50.815Z,10.70
2019-03-30T21:17:22.055Z,10.70
2019-03-30T21:19:53.609Z,10.70
2019-03-30T21:22:25.135Z,10.70
2019-03-30T21:24:56.463Z,10.70
2019-03-30T21:27:27.910Z,10.60
2019-03-30T21:29:59.613Z,10.60
2019-03-30T21:32:30.902Z,10.60
2019-03-30T21:35:02.423Z,10.60
2019-03-30T21:37:37.283Z,10.60
2019-03-30T21:40:08.954Z,10.60
2019-03-30T21:42:40.169Z,10.60
2019-03-30T21:45:11.986Z,10.50
2019-03-30T21:47:44.201Z,10.50
2019-03-30T21:50:15.431Z,10.50
2019-03-30T21:52:46.848Z,10.50
2019-03-30T21:55:18.015Z,10.50
2019-03-30T21:57:49.132Z,10.40
2019-03-30T22:00:34.823Z,10.40
2019-03-30T22:03:06.275Z,10.40
2019-03-30T22:05:38.031Z,10.40
2019-03-30T22:08:09.651Z,10.40
2019-03-30T22:10:41.065Z,10.30
2019-03-30T22:13:12.061Z,10.30
2019-03-30T22:15:43.279Z,10.30
2019-03-30T22:18:14.531Z,10.20
2019-03-30T22:20:47.207Z,10.10
2019-03-30T22:23:18.488Z,10.00
2019-03-30T22:25:49.491Z,9.90
2019-03-30T22:28:21.559Z,9.90
2019-03-30T22:30:53.691Z,9.90
2019-03-30T22:33:25.063Z,9.80
2019-03-30T22:35:56.429Z,9.70
2019-03-30T22:38:27.868Z,9.70
2019-03-30T22:40:59.231Z,9.60
2019-03-30T22:43:30.245Z,9.60
2019-03-30T22:46:01.633Z,9.50
2019-03-30T22:48:39.963Z,9.50
2019-03-30T22:51:11.101Z,9.40
2019-03-30T22:53:42.139Z,9.40
2019-03-30T22:56:13.109Z,9.40
2019-03-30T22:58:44.369Z,9.40
2019-03-30T23:01:18.174Z,9.30
2019-03-30T23:03:50.771Z,9.30
2019-03-30T23:06:21.809Z,9.30
2019-03-30T23:08:55.091Z,9.20
2019-03-30T23:11:27.562Z,9.20
2019-03-30T23:13:58.577Z,9.20
2019-03-30T23:16:29.593Z,9.20
2019-03-30T23:19:01.266Z,9.20
2019-03-30T23:21:32.243Z,9.20
2019-03-30T23:24:03.283Z,9.20
2019-03-30T23:26:34.509Z,9.20
2019-03-30T23:29:05.621Z,9.20
2019-03-30T23:31:37.070Z,9.30
2019-03-30T23:34:08.071Z,9.40
2019-03-30T23:36:39.161Z,9.40
2019-03-30T23:39:13.221Z,9.50
2019-03-30T23:41:44.465Z,9.50
2019-03-30T23:44:15.724Z,9.60
2019-03-30T23:46:47.235Z,9.60
2019-03-30T23:49:18.302Z,9.60
2019-03-30T23:51:49.310Z,9.60
2019-03-30T23:54:20.572Z,9.60
2019-03-30T23:56:51.708Z,9.60
2019-03-30T23:59:25.009Z,9.60
